Time;durP1;ratioP1;P1;durP2;ratioP2;P2;SDS_P1;SDS_P2;PMS_P1;PMS_P2;Temp;Humidity;BMP_temperature;BMP_pressure;BME280_temperature;BME280_humidity;BME280_pressure;Samples;Min_cycle;Max_cycle;Signal;HPM_P1;HPM_P2
2021/05/14 00:01:54;;;;;;;3.72;1.98;;;;;;;13.37;74.18;98855.80;1758951;80;21111;-55
2021/05/14 00:04:21;;;;;;;3.02;2.02;;;;;;;13.36;74.19;98852.72;1749128;80;20969;-55
2021/05/14 00:06:49;;;;;;;5.00;2.30;;;;;;;13.35;74.24;98849.66;1741975;80;21748;-54
2021/05/14 00:09:16;;;;;;;3.35;2.15;;;;;;;13.34;74.29;98853.34;1743685;80;21440;-55
2021/05/14 00:11:43;;;;;;;1.92;1.80;;;;;;;13.33;74.28;98854.31;1743036;80;21510;-54
2021/05/14 00:14:09;;;;;;;3.62;2.85;;;;;;;13.32;74.29;98855.28;1742080;80;21792;-55
2021/05/14 00:16:35;;;;;;;2.95;2.70;;;;;;;13.32;74.27;98851.23;1739257;80;21074;-55
2021/05/14 00:19:03;;;;;;;2.37;2.27;;;;;;;13.30;74.27;98843.72;1737015;80;21575;-55
2021/05/14 00:21:30;;;;;;;2.33;1.92;;;;;;;13.29;74.29;98842.47;1743480;80;21068;-55
2021/05/14 00:23:57;;;;;;;2.72;2.45;;;;;;;13.28;74.32;98840.25;1737634;80;21524;-55
2021/05/14 00:26:23;;;;;;;3.83;1.50;;;;;;;13.28;74.34;98842.09;1738761;80;21680;-54
2021/05/14 00:28:50;;;;;;;1.90;1.72;;;;;;;13.28;74.36;98839.39;1736702;80;21113;-55
2021/05/14 00:31:16;;;;;;;2.47;1.30;;;;;;;13.28;74.40;98834.85;1740693;80;21713;-55
2021/05/14 00:33:43;;;;;;;2.50;1.52;;;;;;;13.27;74.43;98834.47;1740727;80;21638;-55
2021/05/14 00:36:09;;;;;;;2.02;1.92;;;;;;;13.29;74.44;98832.52;1740745;80;21085;-55
2021/05/14 00:38:36;;;;;;;2.40;2.30;;;;;;;13.31;74.42;98828.36;1743515;80;20926;-55
2021/05/14 00:41:02;;;;;;;3.35;3.05;;;;;;;13.31;74.39;98833.28;1742026;80;21657;-55
2021/05/14 00:43:31;;;;;;;3.90;2.95;;;;;;;13.31;74.35;98829.72;1738928;80;21362;-55
2021/05/14 00:46:00;;;;;;;2.55;2.35;;;;;;;13.28;74.38;98821.34;1741212;80;21808;-55
2021/05/14 00:48:26;;;;;;;2.33;2.12;;;;;;;13.26;74.37;98823.31;1740479;80;21963;-55
2021/05/14 00:50:53;;;;;;;3.58;2.00;;;;;;;13.25;74.43;98828.34;1739869;80;20997;-55
2021/05/14 00:53:19;;;;;;;2.33;1.82;;;;;;;13.23;74.45;98831.15;1744803;80;21174;-55
2021/05/14 00:55:45;;;;;;;3.30;1.70;;;;;;;13.22;74.53;98828.07;1740791;80;21123;-55
2021/05/14 00:58:11;;;;;;;3.47;1.98;;;;;;;13.24;74.51;98827.96;1740031;80;21435;-55
2021/05/14 01:00:38;;;;;;;3.12;1.72;;;;;;;13.23;74.56;98825.74;1739259;80;21634;-54
2021/05/14 01:03:04;;;;;;;2.58;2.37;;;;;;;13.23;74.58;98823.05;1741953;80;21104;-54
2021/05/14 01:05:31;;;;;;;4.55;3.08;;;;;;;13.22;74.63;98819.09;1731174;80;21133;-55
2021/05/14 01:07:58;;;;;;;3.00;2.80;;;;;;;13.22;74.70;98821.31;1727059;80;21094;-55
2021/05/14 01:10:24;;;;;;;2.85;2.27;;;;;;;13.20;74.73;98816.50;1696343;82;20944;-55
2021/05/14 01:12:50;;;;;;;3.27;1.82;;;;;;;13.18;74.80;98813.04;1725604;80;21646;-55
2021/05/14 01:15:18;;;;;;;1.72;1.62;;;;;;;13.20;74.83;98815.64;1726378;80;20935;-55
2021/05/14 01:17:45;;;;;;;4.72;1.30;;;;;;;13.19;74.87;98819.31;1720674;80;20908;-55
2021/05/14 01:20:13;;;;;;;4.87;1.72;;;;;;;13.19;74.87;98811.20;1723888;80;20908;-54
2021/05/14 01:22:41;;;;;;;2.12;1.92;;;;;;;13.18;74.90;98811.69;1719706;80;21405;-55
2021/05/14 01:25:08;;;;;;;2.95;2.25;;;;;;;13.18;74.96;98813.56;1724798;80;21861;-55
2021/05/14 01:27:34;;;;;;;2.62;2.42;;;;;;;13.16;75.01;98814.16;1696520;80;21003;-55
2021/05/14 01:30:01;;;;;;;2.67;2.47;;;;;;;13.14;75.03;98812.91;1724530;81;20896;-55
2021/05/14 01:32:27;;;;;;;3.15;2.33;;;;;;;13.13;75.09;98815.69;1724695;80;21026;-54
2021/05/14 01:34:53;;;;;;;3.55;2.10;;;;;;;13.13;75.14;98814.33;1724593;80;21406;-54
2021/05/14 01:37:20;;;;;;;1.40;1.25;;;;;;;13.11;75.19;98817.14;1723164;80;21469;-51
2021/05/14 01:39:46;;;;;;;1.85;1.50;;;;;;;13.10;75.24;98809.17;1722674;80;20931;-52
2021/05/14 01:42:12;;;;;;;4.67;2.22;;;;;;;13.11;75.31;98810.39;1723918;81;20947;-53
2021/05/14 01:44:39;;;;;;;2.17;1.95;;;;;;;13.11;75.33;98814.44;1725839;80;20938;-54
2021/05/14 01:47:05;;;;;;;6.22;2.50;;;;;;;13.11;75.38;98803.63;1724424;81;20996;-54
2021/05/14 01:49:31;;;;;;;3.17;2.40;;;;;;;13.10;75.43;98807.30;1724346;80;21027;-52
2021/05/14 01:51:57;;;;;;;3.40;2.55;;;;;;;13.09;75.47;98804.26;1727223;80;20940;-52
2021/05/14 01:54:24;;;;;;;2.33;2.22;;;;;;;13.07;75.51;98807.55;1687388;83;21143;-54
2021/05/14 01:56:51;;;;;;;1.82;1.60;;;;;;;13.07;75.51;98804.85;1726330;81;21337;-53
2021/05/14 01:59:17;;;;;;;2.60;1.50;;;;;;;13.07;75.54;98801.28;1727233;80;21142;-53
2021/05/14 02:01:44;;;;;;;6.67;2.15;;;;;;;13.06;75.55;98806.31;1723128;80;21586;-52
2021/05/14 02:04:10;;;;;;;1.62;1.52;;;;;;;13.06;75.56;98801.77;1720912;80;21030;-51
2021/05/14 02:06:37;;;;;;;2.40;2.27;;;;;;;13.05;75.56;98798.69;1735281;80;21548;-54
2021/05/14 02:09:05;;;;;;;3.00;2.45;;;;;;;13.05;75.56;98799.17;1740320;80;21788;-52
2021/05/14 02:11:32;;;;;;;2.20;1.98;;;;;;;13.03;75.52;98795.71;1741507;81;21906;-52
2021/05/14 02:13:58;;;;;;;3.65;2.05;;;;;;;13.01;75.45;98797.20;1689744;83;20932;-52
2021/05/14 02:16:25;;;;;;;2.25;2.15;;;;;;;13.00;75.38;98798.17;1677923;83;21709;-52
2021/05/14 02:18:52;;;;;;;2.30;2.10;;;;;;;12.99;75.29;98791.05;1675793;83;21128;-52
2021/05/14 02:21:19;;;;;;;2.37;2.00;;;;;;;12.99;75.21;98795.58;1741816;80;21096;-51
2021/05/14 02:23:46;;;;;;;1.60;1.50;;;;;;;12.98;75.15;98794.72;1744095;80;21004;-53
2021/05/14 02:26:13;;;;;;;1.32;1.22;;;;;;;12.99;75.10;98788.83;1688840;83;21047;-54
2021/05/14 02:28:39;;;;;;;7.10;3.10;;;;;;;12.98;75.06;98782.56;1681462;83;20962;-54
2021/05/14 02:31:05;;;;;;;2.58;2.37;;;;;;;12.98;74.98;98785.27;1739550;80;21048;-54
2021/05/14 02:33:32;;;;;;;4.12;2.17;;;;;;;12.98;74.88;98781.21;1741502;80;21160;-54
2021/05/14 02:35:58;;;;;;;2.37;2.20;;;;;;;12.97;74.76;98781.31;1737664;80;21120;-54
2021/05/14 02:38:24;;;;;;;3.58;2.50;;;;;;;12.96;74.62;98783.15;1740144;80;21867;-54
2021/05/14 02:40:51;;;;;;;2.02;1.92;;;;;;;12.95;74.48;98780.56;1734730;80;21076;-52
2021/05/14 02:43:17;;;;;;;3.25;1.55;;;;;;;12.92;74.34;98778.10;1743466;80;21151;-53
2021/05/14 02:45:43;;;;;;;4.37;1.65;;;;;;;12.91;74.27;98776.38;1739682;80;21028;-51
2021/05/14 02:48:10;;;;;;;2.75;1.30;;;;;;;12.88;74.18;98774.75;1741307;80;21708;-52
2021/05/14 02:50:36;;;;;;;2.52;1.70;;;;;;;12.87;74.14;98782.47;1742081;80;22698;-53
2021/05/14 02:53:03;;;;;;;2.70;1.60;;;;;;;12.87;74.16;98777.94;1736457;80;21151;-53
2021/05/14 02:55:30;;;;;;;4.03;2.42;;;;;;;12.87;74.10;98777.07;1740675;80;20931;-52
2021/05/14 02:57:56;;;;;;;4.58;2.33;;;;;;;12.87;74.01;98774.37;1736480;80;21100;-52
2021/05/14 03:00:23;;;;;;;3.62;1.65;;;;;;;12.86;73.99;98782.09;1738681;80;21123;-53
2021/05/14 03:02:50;;;;;;;1.70;1.30;;;;;;;12.83;73.96;98779.15;1743400;80;21208;-53
2021/05/14 03:05:16;;;;;;;2.45;1.27;;;;;;;12.82;73.90;98778.77;1741900;80;21065;-51
2021/05/14 03:07:43;;;;;;;2.25;1.30;;;;;;;12.82;73.88;98776.07;1753499;80;21178;-51
2021/05/14 03:10:11;;;;;;;4.35;1.27;;;;;;;12.80;73.89;98776.66;1754847;80;21124;-51
2021/05/14 03:12:37;;;;;;;2.05;1.52;;;;;;;12.82;73.87;98780.12;1754447;80;20941;-51
2021/05/14 03:15:06;;;;;;;3.33;1.80;;;;;;;12.84;73.84;98771.39;1754732;80;21606;-52
2021/05/14 03:17:32;;;;;;;3.25;1.80;;;;;;;12.85;73.81;98782.58;1752097;80;21013;-49
2021/05/14 03:19:59;;;;;;;2.42;1.95;;;;;;;12.83;73.78;98777.80;1754978;80;21079;-51
2021/05/14 03:22:25;;;;;;;2.65;2.10;;;;;;;12.84;73.76;98771.91;1757206;80;21677;-52
2021/05/14 03:24:51;;;;;;;1.80;1.42;;;;;;;12.84;73.79;98775.96;1752814;80;21083;-53
2021/05/14 03:27:18;;;;;;;2.37;1.50;;;;;;;12.84;73.80;98779.50;1753327;80;21936;-52
2021/05/14 03:29:44;;;;;;;3.83;1.22;;;;;;;12.87;73.80;98780.63;1753407;80;21882;-52
2021/05/14 03:32:10;;;;;;;3.02;1.25;;;;;;;12.88;73.83;98785.06;1758884;80;21231;-52
2021/05/14 03:34:38;;;;;;;1.92;1.32;;;;;;;12.92;73.79;98782.16;1756467;80;21004;-54
2021/05/14 03:37:04;;;;;;;2.50;1.27;;;;;;;12.95;73.82;98781.42;1752142;80;21091;-53
2021/05/14 03:39:30;;;;;;;1.60;1.50;;;;;;;13.00;73.66;98780.62;1750446;80;21663;-52
2021/05/14 03:42:14;;;;;;;3.12;1.62;;;;;;;13.06;73.57;98781.99;1754832;80;21439;-51
2021/05/14 03:44:34;;;;;;;2.00;1.80;;;;;;;13.08;73.50;98782.75;1750263;80;21083;-52
2021/05/14 03:47:03;;;;;;;1.77;1.67;;;;;;;13.09;73.45;98782.64;1751983;80;21103;-53
2021/05/14 03:49:29;;;;;;;3.95;1.20;;;;;;;13.11;73.37;98779.80;1752362;80;21083;-54
2021/05/14 03:51:55;;;;;;;1.45;1.27;;;;;;;13.16;73.29;98783.08;1753331;80;21082;-53
2021/05/14 03:54:22;;;;;;;5.97;1.47;;;;;;;13.21;73.22;98784.94;1750942;80;21556;-52
2021/05/14 03:56:48;;;;;;;2.90;1.27;;;;;;;13.24;73.19;98780.19;1750697;80;21595;-53
2021/05/14 03:59:16;;;;;;;3.95;1.70;;;;;;;13.29;73.13;98782.53;1752227;80;21607;-53
2021/05/14 04:01:42;;;;;;;1.90;1.55;;;;;;;13.31;73.08;98782.42;1754169;80;21490;-53
2021/05/14 04:04:08;;;;;;;5.00;1.65;;;;;;;13.31;73.04;98785.12;1753142;80;21021;-52
2021/05/14 04:06:35;;;;;;;3.33;2.20;;;;;;;13.31;73.08;98776.53;1748957;80;20954;-54
2021/05/14 04:09:04;;;;;;;4.25;2.65;;;;;;;13.33;73.09;98776.42;1737770;80;21304;-53
2021/05/14 04:16:44;;;;;;;1.77;1.20;;;;;;;13.37;73.12;98773.36;1742985;81;21849;-52
2021/05/14 04:19:11;;;;;;;3.30;1.47;;;;;;;13.39;73.14;98768.70;1743104;80;20973;-54
2021/05/14 04:21:37;;;;;;;1.60;1.50;;;;;;;13.44;73.09;98767.86;1745176;80;20937;-52
2021/05/14 04:24:05;;;;;;;1.52;1.35;;;;;;;13.50;73.04;98774.66;1749635;80;21374;-53
2021/05/14 04:26:32;;;;;;;2.08;1.90;;;;;;;13.56;73.02;98770.14;1695717;83;20962;-54
2021/05/14 04:28:58;;;;;;;2.72;2.52;;;;;;;13.62;72.90;98771.02;1746537;80;20993;-54
2021/05/14 04:31:25;;;;;;;2.72;2.52;;;;;;;13.71;72.88;98772.16;1744268;80;21497;-54
2021/05/14 04:33:51;;;;;;;2.70;1.98;;;;;;;13.74;72.78;98774.64;1723342;81;21723;-54
2021/05/14 04:36:17;;;;;;;1.90;1.77;;;;;;;13.79;72.60;98768.38;1695875;82;21505;-54
2021/05/14 04:38:44;;;;;;;2.50;1.45;;;;;;;13.86;72.50;98769.65;1698794;83;21369;-54
2021/05/14 04:41:10;;;;;;;3.50;1.90;;;;;;;13.92;72.26;98758.34;1696335;83;20929;-52
2021/05/14 04:43:36;;;;;;;4.47;3.25;;;;;;;14.00;72.14;98761.31;1698770;83;21356;-54
2021/05/14 04:46:03;;;;;;;2.85;2.58;;;;;;;14.09;71.98;98756.55;1699945;83;20968;-52
2021/05/14 04:48:30;;;;;;;5.10;2.47;;;;;;;14.20;71.75;98757.06;1694650;83;21133;-54
2021/05/14 04:50:57;;;;;;;2.90;2.60;;;;;;;14.31;71.48;98755.70;1697751;83;21494;-54
2021/05/14 04:53:28;;;;;;;3.62;3.33;;;;;;;14.41;71.15;98762.64;1693174;83;22274;-54
2021/05/14 04:55:52;;;;;;;2.80;2.47;;;;;;;14.50;70.97;98750.59;1697450;83;21115;-49
2021/05/14 04:58:18;;;;;;;4.92;1.85;;;;;;;14.61;70.43;98745.18;1695548;83;21611;-51
2021/05/14 05:00:44;;;;;;;1.72;1.60;;;;;;;14.72;70.08;98742.94;1738726;80;21126;-51
2021/05/14 05:03:10;;;;;;;2.45;1.82;;;;;;;14.86;69.99;98745.41;1737589;80;21135;-51
2021/05/14 05:05:37;;;;;;;6.60;2.22;;;;;;;14.99;69.33;98740.69;1739071;80;22172;-52
2021/05/14 05:08:04;;;;;;;2.83;2.62;;;;;;;15.13;68.92;98732.80;1739623;80;22213;-49
2021/05/14 05:10:30;;;;;;;3.27;2.98;;;;;;;15.24;68.69;98738.16;1739453;80;21362;-51
2021/05/14 05:12:56;;;;;;;3.87;2.12;;;;;;;15.36;68.50;98736.29;1738639;80;21132;-53
2021/05/14 05:15:23;;;;;;;4.42;1.62;;;;;;;15.47;68.17;98734.91;1737639;80;21606;-50
2021/05/14 05:17:49;;;;;;;3.33;2.42;;;;;;;15.54;67.63;98728.00;1741085;80;21491;-50
2021/05/14 05:20:16;;;;;;;2.47;1.67;;;;;;;15.61;67.16;98730.55;1742301;80;21144;-50
2021/05/14 05:22:42;;;;;;;4.58;1.72;;;;;;;15.66;66.97;98731.50;1739886;80;21604;-52
2021/05/14 05:25:10;;;;;;;3.30;1.82;;;;;;;15.76;66.12;98719.75;1692527;82;21117;-51
2021/05/14 05:27:36;;;;;;;3.05;1.47;;;;;;;15.76;66.12;98719.75;1745450;80;20976;-53
2021/05/14 05:30:04;;;;;;;1.70;1.60;;;;;;;15.82;65.81;98725.16;1739700;80;21575;-51
2021/05/14 05:32:30;;;;;;;1.60;1.50;;;;;;;15.84;65.50;98717.23;1741311;80;21091;-51
2021/05/14 05:34:57;;;;;;;1.98;1.77;;;;;;;15.87;65.44;98719.69;1741065;80;21092;-51
2021/05/14 05:37:24;;;;;;;3.58;1.90;;;;;;;15.88;65.19;98717.34;1738688;80;21414;-51
2021/05/14 05:39:50;;;;;;;2.72;2.10;;;;;;;15.90;65.05;98713.15;1740880;80;21187;-50
2021/05/14 05:42:16;;;;;;;2.47;2.10;;;;;;;15.86;64.95;98712.54;1740454;80;21946;-50
2021/05/14 05:44:43;;;;;;;3.87;2.00;;;;;;;15.88;64.85;98712.41;1738178;81;21509;-53
2021/05/14 05:47:11;;;;;;;1.98;1.27;;;;;;;15.88;64.85;98712.41;1740131;80;21459;-52
2021/05/14 05:49:37;;;;;;;5.45;1.50;;;;;;;15.89;65.08;98713.64;1744629;80;22166;-50
2021/05/14 05:52:04;;;;;;;1.50;1.37;;;;;;;15.94;65.33;98716.44;1743575;80;20917;-51
2021/05/14 05:54:30;;;;;;;1.57;1.45;;;;;;;15.98;65.20;98715.20;1744902;80;21569;-53
2021/05/14 05:57:00;;;;;;;2.15;1.82;;;;;;;16.13;65.24;98709.29;1742570;80;21421;-50
2021/05/14 05:59:27;;;;;;;2.15;2.05;;;;;;;16.13;65.24;98687.58;1685227;83;21089;-52
2021/05/14 06:01:54;;;;;;;2.72;1.90;;;;;;;16.25;65.34;98707.34;1680435;83;21173;-53
2021/05/14 06:04:20;;;;;;;4.03;2.08;;;;;;;16.37;64.85;98705.41;1704921;82;21570;-51
2021/05/14 06:06:47;;;;;;;4.45;1.92;;;;;;;16.46;64.83;98693.23;1742127;80;21791;-51
2021/05/14 06:09:13;;;;;;;2.87;1.95;;;;;;;16.57;64.44;98689.07;1746422;80;21245;-53
2021/05/14 06:11:41;;;;;;;1.98;1.30;;;;;;;16.67;63.98;98677.41;1748611;80;21130;-50
2021/05/14 06:14:08;;;;;;;3.98;1.72;;;;;;;16.75;63.41;98689.80;1748664;80;21129;-53
2021/05/14 06:16:34;;;;;;;2.62;1.50;;;;;;;16.80;62.92;98693.81;1747098;80;21458;-52
2021/05/14 06:19:21;;;;;;;3.15;1.50;;;;;;;16.86;62.64;98696.47;1747958;80;21570;-51
2021/05/14 06:21:49;;;;;;;1.90;1.55;;;;;;;16.91;62.29;98695.08;1752661;80;20973;-52
2021/05/14 06:24:16;;;;;;;2.33;1.37;;;;;;;16.97;61.94;98699.08;1752068;80;20937;-51
2021/05/14 06:26:44;;;;;;;3.92;1.60;;;;;;;17.02;61.69;98696.79;1750544;80;21080;-52
2021/05/14 06:29:11;;;;;;;3.22;1.27;;;;;;;17.07;61.63;98694.53;1748164;80;21549;-53
2021/05/14 06:31:37;;;;;;;2.58;1.50;;;;;;;17.10;61.04;98702.38;1749482;80;21737;-52
2021/05/14 06:34:03;;;;;;;1.72;1.62;;;;;;;17.10;60.58;98707.83;1745104;80;21105;-52
2021/05/14 06:36:30;;;;;;;2.45;1.22;;;;;;;17.09;60.63;98702.05;1749512;80;21104;-52
2021/05/14 06:38:57;;;;;;;4.65;1.40;;;;;;;17.12;60.81;98700.89;1744751;80;21135;-52
2021/05/14 06:41:23;;;;;;;2.55;1.05;;;;;;;17.14;60.69;98694.33;1745399;80;21167;-54
2021/05/14 06:43:50;;;;;;;3.37;1.10;;;;;;;17.17;60.76;98691.83;1747962;80;21098;-53
2021/05/14 06:46:16;;;;;;;2.92;1.12;;;;;;;17.18;60.46;98694.38;1747365;80;21238;-51
2021/05/14 06:48:44;;;;;;;1.70;1.00;;;;;;;17.21;60.20;98695.97;1750432;80;21115;-52
2021/05/14 06:51:11;;;;;;;1.92;1.10;;;;;;;17.24;60.08;98692.98;1748775;80;21013;-54
2021/05/14 06:53:37;;;;;;;3.92;1.25;;;;;;;17.25;59.82;98690.63;1689391;83;21532;-53
2021/05/14 06:56:04;;;;;;;2.65;0.90;;;;;;;17.26;59.42;98682.83;1748083;80;21550;-52
2021/05/14 06:58:32;;;;;;;1.07;0.90;;;;;;;17.27;59.35;98684.02;1749334;80;20952;-52
2021/05/14 07:00:59;;;;;;;1.70;0.93;;;;;;;17.31;59.31;98681.39;1749770;80;20890;-52
2021/05/14 07:03:25;;;;;;;2.95;1.10;;;;;;;17.37;59.22;98682.17;1748831;80;20961;-51
2021/05/14 07:05:51;;;;;;;1.50;1.00;;;;;;;17.44;59.01;98682.45;1749849;80;21360;-52
2021/05/14 07:08:18;;;;;;;2.52;1.10;;;;;;;17.51;58.67;98677.33;1749995;80;21486;-52
2021/05/14 07:10:44;;;;;;;3.10;1.10;;;;;;;17.58;58.35;98669.80;1750433;80;20929;-53
2021/05/14 07:13:10;;;;;;;1.52;0.95;;;;;;;17.66;58.18;98670.47;1750163;80;21017;-53
2021/05/14 07:15:36;;;;;;;1.52;0.90;;;;;;;17.72;57.57;98666.66;1752786;80;20988;-54
2021/05/14 07:18:03;;;;;;;2.65;1.00;;;;;;;17.77;56.97;98660.80;1748277;80;21360;-52
2021/05/14 07:20:32;;;;;;;5.70;1.07;;;;;;;17.82;56.16;98668.02;1747639;80;21263;-53
2021/05/14 07:22:58;;;;;;;1.87;1.25;;;;;;;17.86;55.91;98668.59;1749905;80;20937;-51
2021/05/14 07:25:24;;;;;;;2.58;1.12;;;;;;;17.89;56.21;98669.14;1693890;82;20947;-54
2021/05/14 07:27:50;;;;;;;4.40;0.70;;;;;;;17.94;56.04;98669.58;1750543;80;20960;-53
2021/05/14 07:30:17;;;;;;;2.90;0.93;;;;;;;18.00;55.37;98659.45;1753293;80;20937;-54
2021/05/14 07:32:43;;;;;;;2.92;1.00;;;;;;;18.07;55.66;98663.30;1695119;82;21034;-54
2021/05/14 07:35:10;;;;;;;2.75;1.25;;;;;;;18.12;55.75;98660.12;1682196;84;20989;-55
2021/05/14 07:37:36;;;;;;;1.92;0.90;;;;;;;18.18;55.53;98656.83;1697669;83;21467;-53
2021/05/14 07:40:04;;;;;;;7.45;1.07;;;;;;;18.24;55.82;98659.45;1690169;83;20999;-53
2021/05/14 07:42:31;;;;;;;2.55;0.90;;;;;;;18.28;56.01;98659.02;1714403;82;21040;-52
2021/05/14 07:44:57;;;;;;;4.78;0.95;;;;;;;18.35;55.46;98662.00;1705256;82;22243;-52
2021/05/14 07:47:23;;;;;;;5.10;0.90;;;;;;;18.37;55.02;98659.99;1694566;83;21401;-53
2021/05/14 07:49:49;;;;;;;6.17;1.00;;;;;;;18.37;55.03;98663.55;1747439;80;21680;-53
2021/05/14 07:52:16;;;;;;;3.02;0.80;;;;;;;18.36;54.91;98663.22;1749805;80;20978;-52
2021/05/14 07:54:42;;;;;;;2.35;0.85;;;;;;;18.37;55.45;98662.19;1750642;80;20948;-53
2021/05/14 07:57:09;;;;;;;2.72;0.80;;;;;;;18.35;55.64;98656.05;1748903;80;21583;-54
2021/05/14 07:59:35;;;;;;;1.07;0.80;;;;;;;18.34;56.20;98658.92;1747816;80;21843;-53
2021/05/14 08:02:01;;;;;;;3.87;0.68;;;;;;;18.32;57.21;98663.65;1745573;80;21687;-54
2021/05/14 08:04:27;;;;;;;0.95;0.70;;;;;;;18.28;56.34;98659.52;1744989;80;21099;-54
2021/05/14 08:06:54;;;;;;;2.47;1.00;;;;;;;18.24;55.39;98667.63;1748678;80;21158;-52
2021/05/14 08:09:23;;;;;;;1.47;0.65;;;;;;;18.19;55.35;98667.22;1737013;80;21079;-53
2021/05/14 08:11:50;;;;;;;2.85;0.70;;;;;;;18.15;55.67;98661.20;1741758;80;21100;-53
2021/05/14 08:14:18;;;;;;;3.85;0.85;;;;;;;18.12;55.51;98657.39;1689324;83;21184;-54
2021/05/14 08:16:45;;;;;;;3.92;1.00;;;;;;;18.10;56.00;98656.20;1742819;80;21100;-55
2021/05/14 08:19:12;;;;;;;2.50;1.00;;;;;;;18.12;56.66;98653.31;1740372;80;21095;-51
2021/05/14 08:21:41;;;;;;;4.90;1.47;;;;;;;18.14;56.45;98654.03;1741741;80;21935;-51
2021/05/14 08:24:09;;;;;;;3.12;0.80;;;;;;;18.17;56.58;98649.66;1742172;80;21153;-53
2021/05/14 08:26:38;;;;;;;1.50;0.90;;;;;;;18.21;55.16;98646.97;1739812;80;21119;-53
2021/05/14 08:29:06;;;;;;;1.70;1.10;;;;;;;18.27;55.12;98650.99;1743341;80;21017;-53
2021/05/14 08:31:34;;;;;;;1.87;1.00;;;;;;;18.30;55.08;98656.12;1691735;83;21017;-51
2021/05/14 08:34:03;;;;;;;1.30;0.75;;;;;;;18.32;54.71;98654.97;1739638;80;21188;-52
2021/05/14 08:36:30;;;;;;;3.08;0.80;;;;;;;18.37;54.95;98662.72;1743308;80;21148;-52
2021/05/14 08:38:56;;;;;;;2.30;1.00;;;;;;;18.44;55.01;98663.83;1740544;80;21075;-52
2021/05/14 08:41:24;;;;;;;2.08;1.10;;;;;;;18.51;55.34;98666.30;1741133;80;21705;-52
2021/05/14 08:43:50;;;;;;;4.00;1.10;;;;;;;18.58;54.73;98666.59;1742756;80;21087;-53
2021/05/14 08:46:24;;;;;;;2.52;1.00;;;;;;;18.64;53.85;98668.70;1738295;80;21611;-53
2021/05/14 08:48:55;;;;;;;1.00;0.85;;;;;;;18.66;53.77;98673.50;1739495;80;28765;-52
2021/05/14 08:51:27;;;;;;;3.12;1.20;;;;;;;18.68;54.05;98662.81;1739467;80;21143;-54
2021/05/14 08:53:59;;;;;;;1.70;0.88;;;;;;;18.72;53.97;98672.39;1740359;80;21091;-55
2021/05/14 08:56:23;;;;;;;2.90;1.15;;;;;;;18.76;54.53;98673.81;1687795;82;21169;-54
2021/05/14 08:58:49;;;;;;;3.35;1.30;;;;;;;18.77;53.92;98674.17;1741408;80;21179;-53
2021/05/14 09:01:16;;;;;;;1.87;1.10;;;;;;;18.79;53.74;98671.30;1737912;80;21132;-55
2021/05/14 09:04:07;;;;;;;1.57;0.90;;;;;;;18.82;54.19;98672.34;1738098;80;21124;-53
2021/05/14 09:06:38;;;;;;;1.55;0.80;;;;;;;18.87;54.10;98668.17;1742229;80;21005;-55
2021/05/14 09:09:11;;;;;;;3.80;1.30;;;;;;;18.98;53.43;98662.13;1745827;80;21075;-54
2021/05/14 09:11:43;;;;;;;1.65;1.40;;;;;;;19.06;53.51;98658.98;1749475;80;21126;-53
2021/05/14 09:14:38;;;;;;;3.95;1.47;;;;;;;19.15;52.52;98659.93;1752934;80;21463;-54
2021/05/14 09:17:06;;;;;;;1.65;0.95;;;;;;;19.18;52.40;98663.22;1748363;80;21557;-53
2021/05/14 09:19:40;;;;;;;2.40;0.90;;;;;;;19.26;52.71;98660.58;1746717;80;21171;-54
2021/05/14 09:22:14;;;;;;;2.13;1.13;;;;;;;19.34;53.32;98659.80;1750581;80;20999;-54
2021/05/14 09:24:46;;;;;;;3.37;1.10;;;;;;;19.41;53.20;98658.16;1746337;80;21109;-54
2021/05/14 09:27:29;;;;;;;4.12;1.00;;;;;;;19.48;52.23;98655.18;1746547;80;21092;-54
2021/05/14 09:29:59;;;;;;;6.85;1.17;;;;;;;19.46;51.98;98646.28;1747535;80;21009;-52
2021/05/14 09:32:31;;;;;;;5.37;1.20;;;;;;;19.47;52.17;98643.05;1749808;80;20974;-54
2021/05/14 09:35:01;;;;;;;4.58;1.20;;;;;;;19.46;52.06;98644.06;1750148;80;21526;-52
2021/05/14 09:37:28;;;;;;;2.95;1.00;;;;;;;19.44;52.12;98639.25;1750496;80;21050;-52
2021/05/14 09:40:18;;;;;;;4.70;1.20;;;;;;;19.42;51.97;98639.41;1725785;80;21005;-52
2021/05/14 09:42:46;;;;;;;3.00;1.30;;;;;;;19.36;52.02;98637.82;1748486;80;21110;-54
2021/05/14 09:45:22;;;;;;;4.47;1.10;;;;;;;19.26;51.95;98644.71;1745955;80;21115;-54
2021/05/14 09:48:14;;;;;;;2.07;1.00;;;;;;;19.21;52.21;98645.70;1747410;80;21112;-53
2021/05/14 09:50:37;;;;;;;1.85;1.00;;;;;;;19.19;52.55;98642.26;1747680;80;21684;-54
2021/05/14 09:53:10;;;;;;;5.10;0.90;;;;;;;19.17;52.78;98640.19;1743818;80;21711;-55
2021/05/14 09:55:38;;;;;;;5.28;0.80;;;;;;;19.18;52.98;98636.45;1745424;80;21099;-54
2021/05/14 09:58:15;;;;;;;6.90;1.30;;;;;;;19.20;52.71;98635.29;1751063;80;21466;-53
2021/05/14 10:00:41;;;;;;;3.52;1.00;;;;;;;19.25;52.22;98637.53;1748163;80;20945;-54
2021/05/14 10:03:09;;;;;;;4.35;1.10;;;;;;;19.31;51.69;98645.09;1748900;80;21022;-53
2021/05/14 10:05:37;;;;;;;3.47;0.90;;;;;;;19.34;49.19;98633.88;1750394;80;21494;-54
2021/05/14 10:08:06;;;;;;;3.00;0.80;;;;;;;19.38;48.41;98632.56;1750644;80;21522;-52
2021/05/14 10:10:35;;;;;;;17.00;5.92;;;;;;;19.40;47.23;98633.23;1752746;80;21040;-53
2021/05/14 10:13:03;;;;;;;3.55;0.98;;;;;;;19.42;46.94;98633.09;1747786;80;21611;-53
2021/05/14 10:15:31;;;;;;;1.37;0.70;;;;;;;19.42;46.49;98631.72;1748058;80;21047;-55
2021/05/14 10:17:58;;;;;;;2.43;0.70;;;;;;;19.39;46.08;98627.97;1748190;80;21023;-55
2021/05/14 10:20:28;;;;;;;7.62;0.68;;;;;;;19.36;46.02;98629.63;1747027;80;24995;-54
2021/05/14 10:22:55;;;;;;;0.75;0.60;;;;;;;19.34;46.16;98629.78;1706751;82;20972;-52
2021/05/14 10:25:42;;;;;;;0.88;0.60;;;;;;;19.32;45.93;98629.58;1669861;85;21682;-54
2021/05/14 10:28:11;;;;;;;6.62;1.62;;;;;;;19.29;46.02;98623.95;1670621;83;21414;-52
2021/05/14 10:31:06;;;;;;;9.63;3.85;;;;;;;19.27;46.47;98627.33;1633689;86;21018;-54
2021/05/14 10:33:44;;;;;;;11.55;2.83;;;;;;;19.26;46.65;98621.52;1657516;84;21362;-54
2021/05/14 10:36:32;;;;;;;3.25;0.90;;;;;;;19.24;47.25;98624.91;1657061;84;21022;-54
2021/05/14 10:39:18;;;;;;;1.02;0.60;;;;;;;19.26;47.76;98628.34;1657252;84;21572;-54
2021/05/14 10:41:51;;;;;;;0.90;0.75;;;;;;;19.29;48.06;98637.59;1657352;84;21551;-55
2021/05/14 10:44:18;;;;;;;3.42;0.80;;;;;;;19.31;48.70;98648.35;1652239;84;21402;-52
2021/05/14 10:46:44;;;;;;;3.67;0.75;;;;;;;19.29;49.92;98648.50;1654949;84;21169;-54
2021/05/14 10:49:15;;;;;;;4.17;1.02;;;;;;;19.21;50.55;98647.06;1654853;84;21113;-54
2021/05/14 10:51:56;;;;;;;5.80;1.77;;;;;;;19.14;50.76;98649.52;1657513;84;20980;-53
2021/05/14 10:54:46;;;;;;;2.50;0.80;;;;;;;19.09;51.42;98651.02;1656098;84;21638;-54
2021/05/14 10:57:13;;;;;;;14.73;4.33;;;;;;;19.04;51.15;98657.45;1654464;84;22685;-55
2021/05/14 10:59:41;;;;;;;6.95;2.95;;;;;;;19.00;51.32;98660.97;1656376;84;22230;-53
2021/05/14 11:02:30;;;;;;;2.98;0.75;;;;;;;19.00;51.74;98654.66;1652860;84;21937;-54
2021/05/14 11:04:58;;;;;;;3.67;0.70;;;;;;;19.01;51.45;98659.11;1654577;84;21006;-53
2021/05/14 11:07:40;;;;;;;3.22;0.72;;;;;;;19.04;51.67;98662.39;1655264;84;21074;-53
2021/05/14 11:10:28;;;;;;;1.75;0.75;;;;;;;19.04;51.76;98661.03;1650601;84;21197;-53
2021/05/14 11:12:57;;;;;;;4.08;0.90;;;;;;;19.07;51.86;98656.61;1645980;84;21392;-53
2021/05/14 11:15:34;;;;;;;6.75;1.40;;;;;;;19.09;51.09;98659.19;1696544;82;21186;-54
2021/05/14 11:18:23;;;;;;;8.58;3.52;;;;;;;19.07;51.21;98658.48;1696678;82;21135;-54
2021/05/14 11:22:08;;;;;;;2.98;1.92;;;;;;;19.11;51.78;98658.55;1789352;77;28127;-53
2021/05/14 11:24:50;;;;;;;7.83;1.75;;;;;;;19.08;51.28;98662.92;1777382;78;21021;-53
2021/05/14 11:27:32;;;;;;;6.55;1.70;;;;;;;19.08;51.24;98660.20;1782266;78;21085;-54
2021/05/14 11:30:00;;;;;;;4.92;1.00;;;;;;;19.12;51.36;98660.26;1783796;78;20983;-52
2021/05/14 11:32:32;;;;;;;7.53;1.52;;;;;;;19.16;51.22;98649.38;1778036;78;20907;-52
2021/05/14 11:35:11;;;;;;;3.77;0.72;;;;;;;19.20;51.52;98647.56;1782282;78;21488;-53
2021/05/14 11:37:56;;;;;;;3.52;0.60;;;;;;;19.25;50.82;98655.27;1775440;78;21408;-52
2021/05/14 11:40:31;;;;;;;0.98;0.60;;;;;;;19.30;50.82;98648.86;1781334;78;21495;-53
2021/05/14 11:43:03;;;;;;;1.07;0.60;;;;;;;19.33;50.49;98636.25;1771711;79;21517;-53
2021/05/14 11:45:44;;;;;;;1.45;0.60;;;;;;;19.41;51.44;98638.20;1768366;79;21556;-51
2021/05/14 11:48:17;;;;;;;2.58;0.60;;;;;;;19.45;50.39;98636.87;1768044;79;21088;-53